Time;durP1;ratioP1;P1;durP2;ratioP2;P2;SDS_P1;SDS_P2;PMS_P1;PMS_P2;Temp;Humidity;BMP_temperature;BMP_pressure;BME280_temperature;BME280_humidity;BME280_pressure;Samples;Min_cycle;Max_cycle;Signal;HPM_P1;HPM_P2
2022/01/05 00:02:12;;;;;;;5.80;2.23;;;;;;;;;;6098919;28;22356;-64
2022/01/05 00:05:33;;;;;;;9.07;3.83;;;;;;;;;;6101657;28;20232;-65
2022/01/05 00:08:55;;;;;;;10.30;3.57;;;;;;;;;;6106986;28;20587;-65
2022/01/05 00:12:16;;;;;;;5.17;2.57;;;;;;;;;;6103586;28;20522;-65
2022/01/05 00:15:37;;;;;;;5.47;2.23;;;;;;;;;;6102613;28;21845;-64
2022/01/05 00:18:58;;;;;;;5.20;2.30;;;;;;;;;;6096353;28;20254;-64
2022/01/05 00:22:18;;;;;;;4.77;2.10;;;;;;;;;;6107218;28;20236;-64
2022/01/05 00:25:40;;;;;;;5.77;2.40;;;;;;;;;;6116055;28;20232;-64
2022/01/05 00:29:00;;;;;;;5.70;2.50;;;;;;;;;;6113426;28;20246;-65
2022/01/05 00:32:21;;;;;;;7.73;3.20;;;;;;;;;;6111669;28;20247;-64
2022/01/05 00:35:42;;;;;;;7.33;2.07;;;;;;;;;;6112879;28;20320;-64
2022/01/05 00:39:03;;;;;;;15.80;5.37;;;;;;;;;;6117897;28;20304;-64
2022/01/05 00:42:24;;;;;;;6.13;2.03;;;;;;;;;;6108799;28;20228;-65
2022/01/05 00:45:45;;;;;;;4.50;2.43;;;;;;;;;;6106225;28;20236;-64
2022/01/05 00:49:05;;;;;;;6.33;2.50;;;;;;;;;;6111146;28;20235;-64
2022/01/05 00:52:26;;;;;;;4.83;2.30;;;;;;;;;;6107247;28;20243;-64
2022/01/05 00:55:46;;;;;;;5.63;2.73;;;;;;;;;;6109473;28;20259;-65
2022/01/05 00:59:08;;;;;;;5.57;2.10;;;;;;;;;;6112639;28;20227;-64
2022/01/05 01:02:29;;;;;;;13.27;3.13;;;;;;;;;;6108560;28;20622;-64
2022/01/05 01:05:50;;;;;;;3.77;1.93;;;;;;;;;;6114191;28;20240;-65
2022/01/05 01:09:10;;;;;;;6.07;2.50;;;;;;;;;;6112935;28;20232;-64
2022/01/05 01:12:32;;;;;;;5.40;2.60;;;;;;;;;;6110036;28;20228;-64
2022/01/05 01:15:54;;;;;;;5.17;2.20;;;;;;;;;;6108695;28;20231;-64
2022/01/05 01:19:14;;;;;;;6.00;3.33;;;;;;;;;;6115581;28;20239;-64
2022/01/05 01:22:36;;;;;;;4.17;2.53;;;;;;;;;;6109801;28;20224;-64
2022/01/05 01:25:56;;;;;;;9.27;2.20;;;;;;;;;;6109370;28;20228;-65
2022/01/05 01:29:17;;;;;;;10.00;2.70;;;;;;;;;;6112031;28;20235;-64
2022/01/05 01:32:39;;;;;;;7.30;2.30;;;;;;;;;;6109464;28;20250;-65
2022/01/05 01:35:59;;;;;;;7.07;2.83;;;;;;;;;;6112642;28;20323;-64
2022/01/05 01:39:20;;;;;;;5.27;2.40;;;;;;;;;;6111317;28;20247;-64
2022/01/05 01:42:41;;;;;;;7.07;2.93;;;;;;;;;;6108239;28;20228;-65
2022/01/05 01:46:01;;;;;;;6.53;2.33;;;;;;;;;;6104804;28;20243;-65
2022/01/05 01:49:23;;;;;;;9.40;2.70;;;;;;;;;;6118806;28;20224;-64
2022/01/05 01:52:44;;;;;;;7.60;2.53;;;;;;;;;;6116330;28;20243;-64
2022/01/05 01:56:07;;;;;;;8.10;2.30;;;;;;;;;;6115711;28;20227;-64
2022/01/05 01:59:28;;;;;;;6.20;2.03;;;;;;;;;;6116196;28;20220;-64
2022/01/05 02:02:48;;;;;;;11.10;2.87;;;;;;;;;;6115835;28;20240;-64
2022/01/05 02:06:10;;;;;;;10.07;3.60;;;;;;;;;;6117699;28;20279;-64
2022/01/05 02:09:30;;;;;;;9.10;2.60;;;;;;;;;;6115988;28;20235;-66
2022/01/05 02:12:51;;;;;;;8.80;3.03;;;;;;;;;;6113226;28;20291;-64
2022/01/05 02:16:13;;;;;;;5.97;2.50;;;;;;;;;;6111484;28;20351;-65
2022/01/05 02:19:34;;;;;;;10.47;2.93;;;;;;;;;;6118764;28;20236;-64
2022/01/05 02:22:55;;;;;;;12.43;3.03;;;;;;;;;;6114358;28;20255;-64
2022/01/05 02:26:16;;;;;;;8.50;3.10;;;;;;;;;;6117621;28;20240;-64
2022/01/05 02:29:37;;;;;;;4.20;2.03;;;;;;;;;;6116275;28;20231;-64
2022/01/05 02:32:58;;;;;;;5.50;2.07;;;;;;;;;;6111595;28;20331;-64
2022/01/05 02:36:20;;;;;;;6.47;2.60;;;;;;;;;;6117781;28;20232;-65
2022/01/05 02:39:42;;;;;;;12.33;3.33;;;;;;;;;;6117762;28;20228;-64
2022/01/05 02:43:02;;;;;;;6.57;3.20;;;;;;;;;;6122364;28;20716;-65
2022/01/05 02:46:23;;;;;;;9.33;2.20;;;;;;;;;;6115377;28;20234;-63
2022/01/05 02:49:44;;;;;;;8.97;2.87;;;;;;;;;;6116367;28;20240;-64
2022/01/05 02:53:04;;;;;;;7.20;2.13;;;;;;;;;;6106227;28;20534;-64
2022/01/05 02:56:26;;;;;;;6.87;2.97;;;;;;;;;;6115931;28;20376;-65
2022/01/05 02:59:47;;;;;;;6.90;3.10;;;;;;;;;;6116593;28;20235;-64
2022/01/05 03:03:07;;;;;;;9.70;2.80;;;;;;;;;;6115110;28;20512;-65
2022/01/05 03:06:28;;;;;;;7.87;2.70;;;;;;;;;;6099791;28;20228;-65
2022/01/05 03:09:48;;;;;;;15.33;4.13;;;;;;;;;;6106098;28;20232;-64
2022/01/05 03:13:10;;;;;;;11.03;3.17;;;;;;;;;;6106641;28;20236;-65
2022/01/05 03:16:31;;;;;;;10.00;2.83;;;;;;;;;;6109626;28;20236;-64
2022/01/05 03:19:51;;;;;;;11.27;3.67;;;;;;;;;;6115917;28;20231;-64
2022/01/05 03:23:12;;;;;;;10.53;3.03;;;;;;;;;;6117597;28;20240;-65
2022/01/05 03:26:32;;;;;;;8.20;3.50;;;;;;;;;;6112323;28;20240;-64
2022/01/05 03:29:55;;;;;;;6.73;3.87;;;;;;;;;;6111924;28;20318;-64
2022/01/05 03:33:20;;;;;;;8.97;2.87;;;;;;;;;;6113896;28;20243;-64
2022/01/05 03:36:41;;;;;;;6.37;2.83;;;;;;;;;;6107657;28;20235;-64
2022/01/05 03:40:01;;;;;;;7.00;2.07;;;;;;;;;;6117113;28;20224;-64
2022/01/05 03:43:21;;;;;;;7.77;2.63;;;;;;;;;;6114230;28;20810;-63
2022/01/05 03:46:43;;;;;;;7.63;3.43;;;;;;;;;;6112243;28;20231;-63
2022/01/05 03:50:04;;;;;;;4.07;2.67;;;;;;;;;;6117553;28;20240;-64
2022/01/05 03:53:25;;;;;;;6.97;2.37;;;;;;;;;;6116748;28;20240;-65
2022/01/05 03:56:45;;;;;;;5.07;2.77;;;;;;;;;;6114045;28;20335;-64
2022/01/05 04:00:07;;;;;;;5.60;2.60;;;;;;;;;;6113661;28;20232;-65
2022/01/05 04:03:35;;;;;;;11.63;3.23;;;;;;;;;;6110513;28;20231;-63
2022/01/05 04:06:55;;;;;;;6.40;3.03;;;;;;;;;;6107908;28;20241;-64
2022/01/05 04:10:15;;;;;;;10.10;2.43;;;;;;;;;;6111845;28;20244;-64
2022/01/05 04:13:37;;;;;;;7.93;2.70;;;;;;;;;;6110123;28;20328;-63
2022/01/05 04:16:57;;;;;;;4.30;2.30;;;;;;;;;;6112574;28;20236;-64
2022/01/05 04:20:20;;;;;;;11.30;2.70;;;;;;;;;;6110251;28;20235;-65
2022/01/05 04:23:40;;;;;;;6.30;2.93;;;;;;;;;;6111260;28;20224;-65
2022/01/05 04:27:01;;;;;;;11.43;4.30;;;;;;;;;;6114889;28;20244;-64
2022/01/05 04:30:22;;;;;;;7.50;2.47;;;;;;;;;;6107352;28;20236;-64
2022/01/05 04:33:42;;;;;;;9.07;2.93;;;;;;;;;;6113998;28;20240;-64
2022/01/05 04:37:04;;;;;;;11.80;2.73;;;;;;;;;;6112292;28;20236;-64
2022/01/05 04:40:25;;;;;;;10.07;2.60;;;;;;;;;;6108033;28;20590;-65
2022/01/05 04:43:46;;;;;;;8.17;2.40;;;;;;;;;;6114307;28;20242;-63
2022/01/05 04:47:07;;;;;;;9.70;2.30;;;;;;;;;;6113480;28;20232;-64
2022/01/05 04:50:28;;;;;;;6.33;1.77;;;;;;;;;;6114268;28;20640;-64
2022/01/05 04:53:51;;;;;;;7.70;2.27;;;;;;;;;;6116774;28;20235;-64
2022/01/05 04:57:12;;;;;;;9.83;3.00;;;;;;;;;;6107470;28;20227;-64
2022/01/05 05:00:32;;;;;;;7.87;3.33;;;;;;;;;;6111317;28;20273;-64
2022/01/05 05:03:53;;;;;;;6.53;2.80;;;;;;;;;;6114234;28;20236;-64
2022/01/05 05:07:14;;;;;;;7.70;2.17;;;;;;;;;;6111958;28;20235;-63
2022/01/05 05:10:36;;;;;;;8.43;2.03;;;;;;;;;;6108010;28;20228;-64
2022/01/05 05:13:56;;;;;;;12.80;2.40;;;;;;;;;;6112895;28;20694;-67
2022/01/05 05:17:17;;;;;;;6.90;3.03;;;;;;;;;;6112770;28;20247;-64
2022/01/05 05:20:38;;;;;;;7.30;2.60;;;;;;;;;;6114665;28;20228;-65
2022/01/05 05:23:58;;;;;;;9.10;2.57;;;;;;;;;;6113719;28;20220;-64
2022/01/05 05:27:20;;;;;;;3.37;2.17;;;;;;;;;;6113848;28;20238;-64
2022/01/05 05:30:41;;;;;;;7.40;2.03;;;;;;;;;;6109727;28;20235;-64
2022/01/05 05:34:01;;;;;;;3.93;2.77;;;;;;;;;;6109394;28;20232;-64
2022/01/05 05:37:22;;;;;;;10.73;2.87;;;;;;;;;;6109524;28;20252;-64
2022/01/05 05:40:43;;;;;;;8.87;3.00;;;;;;;;;;6110626;28;20236;-64
2022/01/05 05:44:05;;;;;;;9.50;3.27;;;;;;;;;;6107694;28;20229;-64
2022/01/05 05:47:25;;;;;;;8.07;3.47;;;;;;;;;;6105197;28;20270;-65
2022/01/05 05:50:46;;;;;;;10.83;4.10;;;;;;;;;;6108796;28;20239;-65
2022/01/05 05:54:07;;;;;;;11.87;3.20;;;;;;;;;;6106992;28;20259;-64
2022/01/05 05:57:27;;;;;;;6.50;2.67;;;;;;;;;;6099581;28;20231;-64
2022/01/05 06:00:49;;;;;;;7.93;2.43;;;;;;;;;;6105283;28;20232;-65
2022/01/05 06:04:10;;;;;;;7.23;2.20;;;;;;;;;;6107495;28;20315;-65
2022/01/05 06:07:30;;;;;;;11.07;2.90;;;;;;;;;;6110588;28;20228;-65
2022/01/05 06:10:51;;;;;;;5.63;2.27;;;;;;;;;;6104934;28;20314;-64
2022/01/05 06:14:12;;;;;;;13.37;4.13;;;;;;;;;;6118363;28;20683;-65
2022/01/05 06:17:34;;;;;;;9.97;2.83;;;;;;;;;;6107123;28;20248;-66
2022/01/05 06:20:54;;;;;;;11.80;3.67;;;;;;;;;;6114007;28;20231;-65
2022/01/05 06:24:15;;;;;;;8.83;3.77;;;;;;;;;;6108919;28;20311;-64
2022/01/05 06:27:35;;;;;;;7.73;2.60;;;;;;;;;;6110911;28;20260;-65
2022/01/05 06:30:56;;;;;;;8.20;2.53;;;;;;;;;;6103873;28;20232;-64
2022/01/05 06:34:18;;;;;;;13.17;3.87;;;;;;;;;;6115142;28;20311;-65
2022/01/05 06:37:38;;;;;;;10.07;3.80;;;;;;;;;;6115571;28;20535;-65
2022/01/05 06:40:59;;;;;;;5.33;2.70;;;;;;;;;;6107618;28;20247;-64
2022/01/05 06:44:20;;;;;;;8.10;3.77;;;;;;;;;;6114479;28;21524;-65
2022/01/05 06:47:41;;;;;;;7.57;3.10;;;;;;;;;;6101324;28;20232;-65
2022/01/05 06:51:03;;;;;;;8.13;3.23;;;;;;;;;;6097727;28;20227;-65
2022/01/05 06:54:23;;;;;;;12.77;3.20;;;;;;;;;;6114639;28;20682;-64
2022/01/05 06:57:44;;;;;;;15.70;3.47;;;;;;;;;;6114056;28;20236;-64
2022/01/05 07:01:05;;;;;;;7.37;2.80;;;;;;;;;;6109649;28;20224;-64
2022/01/05 07:04:25;;;;;;;11.23;2.97;;;;;;;;;;6093240;28;20261;-64
2022/01/05 07:07:47;;;;;;;10.23;2.60;;;;;;;;;;6105075;28;20331;-62
2022/01/05 07:11:08;;;;;;;5.73;2.73;;;;;;;;;;6113305;28;20236;-61
2022/01/05 07:14:29;;;;;;;10.63;3.93;;;;;;;;;;6104432;28;20236;-63
2022/01/05 07:17:49;;;;;;;9.50;3.20;;;;;;;;;;6106188;28;20239;-63
2022/01/05 07:21:10;;;;;;;19.33;3.10;;;;;;;;;;6111048;28;20934;-65
2022/01/05 07:24:32;;;;;;;16.33;3.53;;;;;;;;;;6108966;28;20506;-64
2022/01/05 07:27:53;;;;;;;7.47;3.23;;;;;;;;;;6115231;28;20240;-65
2022/01/05 07:31:13;;;;;;;14.97;3.47;;;;;;;;;;6104002;28;20236;-65
2022/01/05 07:34:33;;;;;;;19.37;2.80;;;;;;;;;;6106538;28;20260;-65
2022/01/05 07:37:54;;;;;;;9.53;2.90;;;;;;;;;;6113997;28;20239;-65
2022/01/05 07:41:16;;;;;;;11.60;3.97;;;;;;;;;;6107301;28;22132;-65
2022/01/05 07:44:37;;;;;;;15.43;3.47;;;;;;;;;;6108512;28;20227;-65
2022/01/05 07:47:57;;;;;;;10.53;3.20;;;;;;;;;;6110561;28;20248;-65
2022/01/05 07:51:18;;;;;;;12.27;3.27;;;;;;;;;;6103065;28;20232;-64
2022/01/05 07:54:38;;;;;;;9.47;2.67;;;;;;;;;;6097518;28;20813;-64
2022/01/05 07:58:00;;;;;;;8.67;3.70;;;;;;;;;;6088674;28;20808;-64
2022/01/05 08:01:20;;;;;;;7.33;2.23;;;;;;;;;;6087715;28;20247;-64
2022/01/05 08:04:41;;;;;;;4.67;2.07;;;;;;;;;;6095154;28;20599;-66
2022/01/05 08:08:01;;;;;;;15.73;3.90;;;;;;;;;;6096271;28;20233;-65
2022/01/05 08:11:22;;;;;;;6.67;3.47;;;;;;;;;;6097804;28;20712;-65
2022/01/05 08:14:44;;;;;;;10.00;3.07;;;;;;;;;;6100272;28;20529;-64
2022/01/05 08:18:04;;;;;;;6.73;2.80;;;;;;;;;;6099693;28;20236;-63
2022/01/05 08:21:25;;;;;;;7.23;2.70;;;;;;;;;;6104541;28;20318;-64
2022/01/05 08:24:45;;;;;;;6.53;2.30;;;;;;;;;;6113184;28;20346;-64
2022/01/05 08:28:08;;;;;;;8.10;4.20;;;;;;;;;;6098295;28;20231;-64
2022/01/05 08:31:29;;;;;;;12.03;4.83;;;;;;;;;;6099244;28;20236;-63
2022/01/05 08:34:50;;;;;;;10.23;3.20;;;;;;;;;;6105872;28;20232;-64
2022/01/05 08:38:11;;;;;;;11.10;5.03;;;;;;;;;;6105059;28;20594;-64
2022/01/05 08:41:32;;;;;;;7.47;3.33;;;;;;;;;;6106773;28;20236;-64
2022/01/05 08:44:52;;;;;;;12.23;4.00;;;;;;;;;;6106235;28;20251;-64
2022/01/05 08:48:15;;;;;;;9.40;4.50;;;;;;;;;;6105426;28;20235;-64
2022/01/05 08:51:36;;;;;;;12.03;3.83;;;;;;;;;;6104466;28;20306;-64
2022/01/05 08:54:57;;;;;;;5.87;3.10;;;;;;;;;;6099820;28;20239;-65
2022/01/05 08:58:19;;;;;;;7.83;3.43;;;;;;;;;;6101199;28;20326;-63
2022/01/05 09:01:42;;;;;;;10.93;4.47;;;;;;;;;;6113000;28;20228;-65
2022/01/05 09:05:05;;;;;;;7.37;3.63;;;;;;;;;;6112588;28;20271;-64
2022/01/05 09:08:25;;;;;;;9.43;3.37;;;;;;;;;;6108752;28;20559;-62
2022/01/05 09:11:46;;;;;;;14.03;4.37;;;;;;;;;;6111212;28;20228;-63
2022/01/05 09:15:07;;;;;;;9.43;4.67;;;;;;;;;;6102514;28;20232;-63
2022/01/05 09:18:27;;;;;;;8.40;4.23;;;;;;;;;;6114945;28;20321;-63
2022/01/05 09:21:49;;;;;;;13.90;4.37;;;;;;;;;;6102845;28;20227;-65
2022/01/05 09:25:11;;;;;;;6.87;5.60;;;;;;;;;;6111978;28;20713;-65
2022/01/05 09:28:31;;;;;;;11.33;4.53;;;;;;;;;;6105644;28;20227;-66
2022/01/05 09:31:52;;;;;;;11.97;4.50;;;;;;;;;;6109211;28;20585;-65
2022/01/05 09:35:15;;;;;;;10.13;3.57;;;;;;;;;;6110738;28;20856;-64
2022/01/05 09:41:56;;;;;;;10.50;4.97;;;;;;;;;;6109655;28;20227;-65
2022/01/05 09:42:17;;;;;;;11.97;4.33;;;;;;;;;;6114487;28;20314;-64
2022/01/05 09:45:39;;;;;;;11.23;4.57;;;;;;;;;;6109168;28;20239;-62
2022/01/05 09:49:02;;;;;;;9.83;5.00;;;;;;;;;;6110758;28;20328;-65
2022/01/05 09:52:24;;;;;;;9.07;4.30;;;;;;;;;;6107985;28;20330;-65
2022/01/05 09:55:51;;;;;;;10.57;4.87;;;;;;;;;;6111751;28;20247;-64
2022/01/05 09:59:12;;;;;;;7.87;3.97;;;;;;;;;;6115753;28;20629;-65
2022/01/05 10:02:32;;;;;;;9.87;5.20;;;;;;;;;;6104362;28;20236;-64
2022/01/05 10:05:53;;;;;;;7.17;4.70;;;;;;;;;;6101505;28;20242;-65
2022/01/05 10:09:14;;;;;;;13.20;6.83;;;;;;;;;;6110067;28;20244;-65
2022/01/05 10:12:36;;;;;;;11.50;5.80;;;;;;;;;;6107394;28;20231;-65
2022/01/05 10:15:56;;;;;;;11.60;5.17;;;;;;;;;;6107300;28;20240;-65
2022/01/05 10:19:21;;;;;;;7.67;4.37;;;;;;;;;;6111611;28;20232;-64
2022/01/05 10:22:42;;;;;;;10.30;6.23;;;;;;;;;;6109035;28;20231;-65
2022/01/05 10:26:19;;;;;;;6.67;5.67;;;;;;;;;;6106971;28;20250;-64
2022/01/05 10:29:50;;;;;;;10.73;6.23;;;;;;;;;;6097995;28;20248;-64
2022/01/05 10:33:11;;;;;;;10.47;7.10;;;;;;;;;;6090382;29;20323;-63
2022/01/05 10:36:43;;;;;;;9.03;6.13;;;;;;;;;;6088949;28;20236;-63
2022/01/05 10:40:08;;;;;;;13.80;5.97;;;;;;;;;;6118527;28;20236;-63
2022/01/05 10:43:28;;;;;;;12.87;4.60;;;;;;;;;;6113272;28;21042;-62
2022/01/05 10:46:51;;;;;;;6.77;4.53;;;;;;;;;;6114430;28;20259;-63
2022/01/05 10:50:19;;;;;;;10.40;5.23;;;;;;;;;;6104030;28;20257;-62
2022/01/05 10:53:40;;;;;;;8.20;4.87;;;;;;;;;;6116075;28;20903;-63
2022/01/05 10:57:07;;;;;;;8.00;5.13;;;;;;;;;;6115239;28;20243;-63
2022/01/05 11:00:39;;;;;;;10.03;6.37;;;;;;;;;;6115014;28;20522;-63
2022/01/05 11:04:14;;;;;;;9.87;3.90;;;;;;;;;;6118152;28;20496;-64
2022/01/05 11:07:39;;;;;;;6.20;3.87;;;;;;;;;;6117452;28;20591;-62
2022/01/05 11:10:59;;;;;;;13.83;5.97;;;;;;;;;;6111614;28;20235;-64
2022/01/05 11:14:21;;;;;;;7.27;4.70;;;;;;;;;;6113889;28;20231;-63
2022/01/05 11:17:42;;;;;;;9.90;4.77;;;;;;;;;;6113412;28;20672;-64
2022/01/05 11:21:05;;;;;;;8.17;3.97;;;;;;;;;;6113707;28;20228;-63
2022/01/05 11:24:26;;;;;;;6.57;3.33;;;;;;;;;;6117773;28;20227;-61
2022/01/05 11:27:47;;;;;;;5.47;3.20;;;;;;;;;;6113596;28;20239;-63
2022/01/05 11:31:08;;;;;;;6.13;3.07;;;;;;;;;;6108825;28;20232;-64
2022/01/05 11:34:29;;;;;;;5.80;3.83;;;;;;;;;;6107217;28;20231;-64
2022/01/05 11:37:51;;;;;;;4.43;3.03;;;;;;;;;;6109703;28;20239;-64
2022/01/05 11:41:12;;;;;;;4.43;3.20;;;;;;;;;;6111551;28;20602;-63
2022/01/05 11:44:43;;;;;;;5.07;3.80;;;;;;;;;;6101370;28;20665;-64
2022/01/05 11:48:14;;;;;;;10.57;4.97;;;;;;;;;;6103043;28;20264;-64
2022/01/05 11:51:48;;;;;;;4.60;3.53;;;;;;;;;;6108823;28;20239;-63
2022/01/05 11:55:11;;;;;;;4.57;4.07;;;;;;;;;;6099430;28;20618;-64
2022/01/05 11:58:33;;;;;;;3.87;3.43;;;;;;;;;;6109470;28;20240;-64
2022/01/05 12:01:59;;;;;;;3.30;2.80;;;;;;;;;;6108350;28;20323;-65
2022/01/05 12:05:19;;;;;;;2.70;2.43;;;;;;;;;;6109817;28;20239;-64
2022/01/05 12:08:40;;;;;;;4.73;3.00;;;;;;;;;;6101457;28;20227;-64
2022/01/05 12:12:22;;;;;;;4.73;2.83;;;;;;;;;;6109963;28;20512;-64
2022/01/05 12:15:50;;;;;;;3.67;2.33;;;;;;;;;;6108548;28;20236;-64
2022/01/05 12:19:12;;;;;;;2.63;1.80;;;;;;;;;;6117810;28;20222;-64
2022/01/05 12:22:32;;;;;;;3.67;2.33;;;;;;;;;;6113460;28;20236;-65
2022/01/05 12:26:12;;;;;;;2.17;1.97;;;;;;;;;;6109800;28;20239;-64
2022/01/05 12:29:34;;;;;;;2.50;1.50;;;;;;;;;;6109141;28;20240;-64
2022/01/05 12:33:01;;;;;;;1.03;0.90;;;;;;;;;;6100046;28;20235;-65
2022/01/05 12:36:32;;;;;;;4.27;1.37;;;;;;;;;;6099991;28;20228;-64
2022/01/05 12:39:56;;;;;;;1.73;1.40;;;;;;;;;;6097711;28;20235;-65
2022/01/05 12:43:31;;;;;;;2.20;1.20;;;;;;;;;;6091847;28;20236;-64
2022/01/05 12:46:54;;;;;;;1.60;1.50;;;;;;;;;;6086015;28;20514;-64
2022/01/05 12:50:15;;;;;;;2.83;2.10;;;;;;;;;;6088410;28;20236;-66
2022/01/05 12:53:36;;;;;;;4.47;1.80;;;;;;;;;;6086088;28;20236;-64
2022/01/05 12:56:57;;;;;;;3.27;2.07;;;;;;;;;;6090785;28;20254;-63
2022/01/05 13:00:18;;;;;;;2.97;2.23;;;;;;;;;;6100446;28;20231;-63
2022/01/05 13:03:40;;;;;;;3.03;1.13;;;;;;;;;;6107365;28;20646;-65
2022/01/05 13:07:02;;;;;;;1.30;1.27;;;;;;;;;;6106467;28;20228;-64
2022/01/05 13:10:28;;;;;;;3.30;1.63;;;;;;;;;;6109408;28;20227;-64
2022/01/05 13:13:48;;;;;;;3.67;1.67;;;;;;;;;;6109771;28;20229;-64
2022/01/05 13:17:10;;;;;;;2.87;2.07;;;;;;;;;;6107037;28;20263;-63
2022/01/05 13:20:31;;;;;;;2.27;1.73;;;;;;;;;;6108953;28;20327;-66
2022/01/05 13:23:55;;;;;;;2.53;1.50;;;;;;;;;;6115156;28;20231;-64
2022/01/05 13:27:17;;;;;;;3.00;1.60;;;;;;;;;;6108212;28;20231;-65
2022/01/05 13:30:38;;;;;;;4.30;1.90;;;;;;;;;;6107975;28;20329;-65
2022/01/05 13:34:07;;;;;;;3.33;1.40;;;;;;;;;;6113304;28;20617;-64
2022/01/05 13:37:30;;;;;;;3.23;1.53;;;;;;;;;;6114553;28;20382;-64
2022/01/05 13:40:54;;;;;;;4.90;1.73;;;;;;;;;;6111692;28;20236;-64
2022/01/05 13:44:14;;;;;;;6.57;2.17;;;;;;;;;;6114995;28;20236;-64
2022/01/05 13:47:34;;;;;;;5.10;1.80;;;;;;;;;;6107555;28;20235;-65
2022/01/05 13:50:56;;;;;;;7.97;2.17;;;;;;;;;;6109241;28;20232;-65
2022/01/05 13:54:18;;;;;;;7.73;2.07;;;;;;;;;;6112709;28;20243;-61
2022/01/05 13:57:38;;;;;;;8.53;3.40;;;;;;;;;;6111616;28;20259;-61
2022/01/05 14:01:02;;;;;;;4.70;2.60;;;;;;;;;;6106005;28;20239;-62
2022/01/05 14:04:22;;;;;;;9.10;3.80;;;;;;;;;;6115908;28;20223;-61
2022/01/05 14:07:43;;;;;;;6.63;2.07;;;;;;;;;;6111007;28;20240;-65
2022/01/05 14:11:07;;;;;;;4.10;2.80;;;;;;;;;;6112158;28;20499;-63
2022/01/05 14:14:28;;;;;;;5.07;2.67;;;;;;;;;;6120599;28;20550;-65
2022/01/05 14:17:58;;;;;;;6.70;1.90;;;;;;;;;;6114664;28;20633;-65
2022/01/05 14:21:26;;;;;;;9.43;3.83;;;;;;;;;;6115604;28;20232;-63
2022/01/05 14:24:47;;;;;;;6.83;3.63;;;;;;;;;;6118059;28;20224;-64
2022/01/05 14:28:14;;;;;;;9.23;2.80;;;;;;;;;;6116884;28;20225;-64
2022/01/05 14:31:35;;;;;;;11.00;3.60;;;;;;;;;;6114966;28;20703;-64
2022/01/05 14:34:56;;;;;;;10.53;3.50;;;;;;;;;;6117449;28;20240;-65
2022/01/05 14:38:16;;;;;;;10.97;3.57;;;;;;;;;;6104544;28;20239;-63
2022/01/05 14:41:38;;;;;;;14.30;3.07;;;;;;;;;;6112804;28;20247;-62
2022/01/05 14:44:59;;;;;;;9.40;3.40;;;;;;;;;;6116607;28;20605;-63
2022/01/05 14:52:43;;;;;;;16.00;4.73;;;;;;;;;;6098975;28;20227;-64
2022/01/05 14:56:04;;;;;;;12.87;4.07;;;;;;;;;;6106555;28;20833;-62
2022/01/05 14:59:26;;;;;;;14.73;4.13;;;;;;;;;;6113561;28;20235;-64
2022/01/05 15:02:48;;;;;;;16.10;4.43;;;;;;;;;;6101947;28;20240;-63
2022/01/05 15:06:08;;;;;;;15.87;4.93;;;;;;;;;;6110841;28;20224;-65
2022/01/05 15:09:29;;;;;;;12.03;3.57;;;;;;;;;;6106988;28;20354;-62
2022/01/05 15:12:50;;;;;;;16.33;4.97;;;;;;;;;;6114977;28;20244;-63
2022/01/05 15:16:10;;;;;;;13.47;4.17;;;;;;;;;;6105761;28;20606;-64
2022/01/05 15:19:32;;;;;;;15.63;4.77;;;;;;;;;;6108631;28;20239;-65
2022/01/05 15:22:57;;;;;;;17.83;6.10;;;;;;;;;;6113808;28;20318;-64
2022/01/05 15:26:18;;;;;;;19.00;5.07;;;;;;;;;;6114956;28;20231;-64
2022/01/05 15:29:39;;;;;;;20.67;4.87;;;;;;;;;;6111837;28;20219;-64
2022/01/05 15:33:00;;;;;;;17.37;4.97;;;;;;;;;;6106658;28;20239;-65
2022/01/05 15:36:23;;;;;;;14.73;5.20;;;;;;;;;;6094142;28;20232;-65
2022/01/05 15:39:44;;;;;;;15.67;5.60;;;;;;;;;;6106810;28;20244;-65
2022/01/05 15:43:05;;;;;;;17.70;5.17;;;;;;;;;;6105281;28;20600;-65
2022/01/05 15:46:25;;;;;;;15.10;7.00;;;;;;;;;;6106522;28;20236;-65
2022/01/05 15:49:46;;;;;;;21.40;5.57;;;;;;;;;;6111516;28;20326;-65
2022/01/05 15:53:11;;;;;;;14.53;5.40;;;;;;;;;;6094120;29;20240;-65
2022/01/05 15:56:40;;;;;;;13.10;4.83;;;;;;;;;;6098802;28;20248;-65
2022/01/05 16:03:38;;;;;;;16.40;5.40;;;;;;;;;;6101234;28;20235;-65
2022/01/05 16:06:59;;;;;;;16.13;5.17;;;;;;;;;;6101147;28;20523;-65
2022/01/05 16:10:21;;;;;;;19.17;6.50;;;;;;;;;;6110018;28;20231;-65
2022/01/05 16:13:41;;;;;;;13.83;4.90;;;;;;;;;;6105879;28;20236;-65
2022/01/05 16:17:02;;;;;;;19.60;5.23;;;;;;;;;;6108849;28;20527;-66
2022/01/05 16:20:23;;;;;;;17.50;4.90;;;;;;;;;;6106739;28;20255;-66
2022/01/05 16:23:44;;;;;;;17.30;5.47;;;;;;;;;;6086473;29;20240;-65
2022/01/05 16:27:06;;;;;;;17.73;5.07;;;;;;;;;;6115185;28;20246;-65
2022/01/05 16:30:26;;;;;;;15.93;4.33;;;;;;;;;;6112152;28;20235;-65
2022/01/05 16:33:47;;;;;;;15.30;5.10;;;;;;;;;;6107582;28;20235;-65
2022/01/05 16:37:15;;;;;;;14.87;4.43;;;;;;;;;;6104662;28;20236;-65
2022/01/05 16:40:37;;;;;;;20.30;5.83;;;;;;;;;;6102439;28;20227;-65
2022/01/05 16:43:59;;;;;;;12.60;4.40;;;;;;;;;;6109938;28;20231;-65
2022/01/05 16:47:20;;;;;;;15.27;4.57;;;;;;;;;;6102492;28;20232;-65
2022/01/05 16:50:41;;;;;;;11.90;4.53;;;;;;;;;;6102081;28;20228;-65
2022/01/05 16:54:02;;;;;;;18.90;6.23;;;;;;;;;;6097650;28;20236;-65
2022/01/05 17:01:03;;;;;;;15.23;7.03;;;;;;;;;;6098666;28;20231;-66
2022/01/05 17:04:24;;;;;;;10.73;3.57;;;;;;;;;;6101038;28;20330;-65
2022/01/05 17:07:45;;;;;;;15.87;4.67;;;;;;;;;;6106370;28;20235;-65
2022/01/05 17:11:06;;;;;;;10.10;5.17;;;;;;;;;;6106896;28;20235;-65
2022/01/05 17:14:26;;;;;;;10.07;3.27;;;;;;;;;;6109292;28;20224;-65
2022/01/05 17:17:48;;;;;;;12.57;4.00;;;;;;;;;;6105436;28;20251;-64
2022/01/05 17:21:09;;;;;;;13.80;4.60;;;;;;;;;;6109964;28;20459;-65
2022/01/05 17:24:29;;;;;;;12.23;4.20;;;;;;;;;;6112223;28;20235;-64
2022/01/05 17:27:51;;;;;;;14.60;4.33;;;;;;;;;;6108932;28;20884;-64
2022/01/05 17:31:13;;;;;;;8.60;3.17;;;;;;;;;;6110424;28;20240;-66
2022/01/05 17:34:35;;;;;;;11.10;4.63;;;;;;;;;;6102686;28;20282;-64
2022/01/05 17:37:56;;;;;;;16.83;3.43;;;;;;;;;;6112387;28;20232;-65
2022/01/05 17:41:16;;;;;;;11.90;4.33;;;;;;;;;;6103815;28;20239;-64
2022/01/05 17:44:37;;;;;;;10.40;3.90;;;;;;;;;;6100034;28;20223;-65
2022/01/05 17:47:59;;;;;;;7.10;3.20;;;;;;;;;;6101847;28;20242;-65
2022/01/05 17:51:23;;;;;;;11.73;3.27;;;;;;;;;;6110483;28;20232;-65
2022/01/05 17:54:43;;;;;;;5.37;2.10;;;;;;;;;;6101256;28;20236;-65
2022/01/05 17:58:05;;;;;;;7.87;4.13;;;;;;;;;;6100696;28;20236;-65
2022/01/05 18:01:26;;;;;;;8.63;2.87;;;;;;;;;;6103534;28;20260;-65
2022/01/05 18:04:47;;;;;;;5.60;2.40;;;;;;;;;;6104460;28;20239;-66
2022/01/05 18:08:09;;;;;;;11.77;4.30;;;;;;;;;;6082573;29;20221;-65
2022/01/05 18:11:30;;;;;;;8.27;3.90;;;;;;;;;;6081068;29;20264;-65
2022/01/05 18:14:50;;;;;;;7.70;3.43;;;;;;;;;;6109966;28;20232;-65
2022/01/05 18:18:11;;;;;;;5.50;2.37;;;;;;;;;;6083991;29;20236;-65
2022/01/05 18:21:32;;;;;;;9.83;2.70;;;;;;;;;;6103253;28;20236;-65
2022/01/05 18:24:55;;;;;;;13.70;3.20;;;;;;;;;;6102851;28;20228;-65
2022/01/05 18:28:16;;;;;;;14.23;4.00;;;;;;;;;;6097280;28;20232;-64
2022/01/05 18:31:37;;;;;;;10.73;4.00;;;;;;;;;;6103426;28;20228;-64
2022/01/05 18:34:58;;;;;;;16.83;4.57;;;;;;;;;;6103788;28;20516;-65
2022/01/05 18:38:20;;;;;;;13.37;5.33;;;;;;;;;;6106757;28;20326;-65
2022/01/05 18:41:42;;;;;;;17.43;7.03;;;;;;;;;;6104643;28;22370;-66
2022/01/05 18:45:03;;;;;;;13.30;5.47;;;;;;;;;;6104593;28;20239;-65
2022/01/05 18:48:24;;;;;;;14.47;5.63;;;;;;;;;;6100293;28;20455;-65
2022/01/05 18:51:47;;;;;;;16.83;5.87;;;;;;;;;;6104399;28;20567;-65
2022/01/05 18:55:09;;;;;;;17.53;6.23;;;;;;;;;;6107653;28;20239;-66
2022/01/05 18:58:32;;;;;;;20.07;5.50;;;;;;;;;;6106319;28;20331;-65
2022/01/05 19:01:53;;;;;;;14.77;5.10;;;;;;;;;;6110676;28;20556;-65
2022/01/05 19:05:14;;;;;;;16.87;5.43;;;;;;;;;;6115498;28;20311;-65
2022/01/05 19:08:35;;;;;;;11.27;3.17;;;;;;;;;;6113915;28;20231;-65
2022/01/05 19:11:56;;;;;;;12.67;3.93;;;;;;;;;;6113294;28;20565;-65
2022/01/05 19:15:18;;;;;;;10.67;4.40;;;;;;;;;;6114524;28;20240;-64
2022/01/05 19:18:39;;;;;;;15.93;5.60;;;;;;;;;;6118800;28;21174;-65
2022/01/05 19:21:59;;;;;;;10.23;4.10;;;;;;;;;;6115585;28;20254;-65
2022/01/05 19:25:20;;;;;;;12.20;4.60;;;;;;;;;;6114204;28;20602;-65
2022/01/05 19:28:41;;;;;;;15.13;5.93;;;;;;;;;;6113900;28;20815;-65
2022/01/05 19:32:03;;;;;;;18.57;6.20;;;;;;;;;;6112037;28;20767;-64
2022/01/05 19:35:23;;;;;;;12.03;4.23;;;;;;;;;;6113464;28;20236;-64
2022/01/05 19:38:47;;;;;;;9.57;4.67;;;;;;;;;;6113732;28;20239;-65
2022/01/05 19:42:07;;;;;;;17.33;6.03;;;;;;;;;;6109188;28;20232;-64
2022/01/05 19:45:28;;;;;;;14.73;3.73;;;;;;;;;;6111102;28;20231;-65
2022/01/05 19:48:50;;;;;;;13.13;4.50;;;;;;;;;;6109410;28;20235;-65
2022/01/05 19:52:18;;;;;;;10.43;3.47;;;;;;;;;;6113001;28;20235;-65
2022/01/05 19:55:40;;;;;;;10.83;4.53;;;;;;;;;;6110290;28;20813;-66
2022/01/05 19:59:01;;;;;;;10.77;5.07;;;;;;;;;;6111680;28;20523;-66
2022/01/05 20:02:24;;;;;;;14.60;3.67;;;;;;;;;;6104323;28;20236;-65
2022/01/05 20:05:46;;;;;;;12.83;4.53;;;;;;;;;;6073446;28;20236;-65
2022/01/05 20:09:10;;;;;;;13.17;3.80;;;;;;;;;;6104643;28;20227;-64
2022/01/05 20:12:31;;;;;;;17.90;3.90;;;;;;;;;;6128425;28;20318;-65
2022/01/05 20:15:52;;;;;;;12.50;3.40;;;;;;;;;;6111598;28;20525;-63